Time;durP1;ratioP1;P1;durP2;ratioP2;P2;SDS_P1;SDS_P2;PMS_P1;PMS_P2;Temp;Humidity;BMP_temperature;BMP_pressure;BME280_temperature;BME280_humidity;BME280_pressure;Samples;Min_cycle;Max_cycle;Signal;HPM_P1;HPM_P2
2022/08/29 00:02:37;;;;;;;16.35;9.07;;;;;;;;;;10392950;28;20076;-74
2022/08/29 00:07:38;;;;;;;13.15;8.10;;;;;;;;;;10400237;28;20025;-78
2022/08/29 00:12:38;;;;;;;17.40;8.20;;;;;;;;;;10395403;28;20030;-77
2022/08/29 00:17:38;;;;;;;17.80;9.32;;;;;;;;;;10423707;28;20797;-76
2022/08/29 00:22:39;;;;;;;19.02;8.27;;;;;;;;;;10407506;28;20056;-76
2022/08/29 00:27:39;;;;;;;20.75;8.38;;;;;;;;;;10410868;28;20045;-74
2022/08/29 00:32:40;;;;;;;16.30;9.05;;;;;;;;;;10410789;28;20029;-72
2022/08/29 00:37:41;;;;;;;22.77;8.98;;;;;;;;;;10387480;28;20126;-74
2022/08/29 00:42:41;;;;;;;17.65;8.82;;;;;;;;;;10408657;28;20032;-73
2022/08/29 00:48:08;;;;;;;19.23;9.30;;;;;;;;;;10383223;28;20026;-74
2022/08/29 00:53:10;;;;;;;16.50;9.27;;;;;;;;;;10383611;28;20099;-77
2022/08/29 00:58:13;;;;;;;12.93;7.97;;;;;;;;;;10408144;28;20202;-76
2022/08/29 01:03:13;;;;;;;19.23;9.68;;;;;;;;;;10409791;28;20022;-75
2022/08/29 01:08:14;;;;;;;19.63;8.27;;;;;;;;;;10407522;28;20399;-78
2022/08/29 01:13:14;;;;;;;18.00;8.48;;;;;;;;;;10407218;28;20025;-77
2022/08/29 01:18:15;;;;;;;13.60;8.60;;;;;;;;;;10407932;28;20026;-73
2022/08/29 01:23:19;;;;;;;15.40;8.85;;;;;;;;;;10406873;28;20076;-74
2022/08/29 01:28:19;;;;;;;17.20;7.97;;;;;;;;;;10407383;28;20026;-74
2022/08/29 01:33:19;;;;;;;20.77;8.60;;;;;;;;;;10407122;28;20044;-77
2022/08/29 01:38:26;;;;;;;13.82;8.10;;;;;;;;;;10407819;28;20030;-76
2022/08/29 01:43:27;;;;;;;13.23;8.80;;;;;;;;;;10407616;28;20104;-78
2022/08/29 01:48:27;;;;;;;17.92;8.45;;;;;;;;;;10406235;28;20112;-76
2022/08/29 01:53:27;;;;;;;16.05;9.90;;;;;;;;;;10407041;28;20057;-74
2022/08/29 01:58:28;;;;;;;18.02;9.57;;;;;;;;;;10389596;28;20187;-74
2022/08/29 02:03:28;;;;;;;15.18;11.15;;;;;;;;;;10366944;28;20029;-74
2022/08/29 02:08:29;;;;;;;20.55;11.80;;;;;;;;;;10408284;28;20021;-73
2022/08/29 02:13:29;;;;;;;14.52;9.35;;;;;;;;;;10405781;28;20040;-77
2022/08/29 02:18:30;;;;;;;18.67;8.63;;;;;;;;;;10405359;28;20124;-73
2022/08/29 02:23:33;;;;;;;20.73;10.52;;;;;;;;;;10403945;28;20053;-73
2022/08/29 02:28:34;;;;;;;16.80;9.30;;;;;;;;;;10406481;28;20073;-78
2022/08/29 02:33:35;;;;;;;14.35;9.68;;;;;;;;;;10404179;28;20393;-73
2022/08/29 02:38:35;;;;;;;15.53;10.43;;;;;;;;;;10405107;28;20033;-74
2022/08/29 02:43:35;;;;;;;17.02;11.10;;;;;;;;;;10404569;28;20026;-78
2022/08/29 02:48:35;;;;;;;15.00;11.02;;;;;;;;;;10403626;28;20087;-79
2022/08/29 02:53:36;;;;;;;18.65;10.68;;;;;;;;;;10404459;28;20505;-74
2022/08/29 02:58:36;;;;;;;16.58;9.18;;;;;;;;;;10404361;28;20017;-73
2022/08/29 03:03:36;;;;;;;21.85;10.73;;;;;;;;;;10405399;28;20340;-75
2022/08/29 03:08:37;;;;;;;14.23;9.43;;;;;;;;;;10403760;28;20446;-73
2022/08/29 03:13:37;;;;;;;16.38;9.73;;;;;;;;;;10374865;28;20510;-74
2022/08/29 03:18:37;;;;;;;15.57;11.10;;;;;;;;;;10403740;28;20155;-75
2022/08/29 03:23:37;;;;;;;19.13;9.60;;;;;;;;;;10403024;28;20041;-72
2022/08/29 03:28:38;;;;;;;17.67;10.23;;;;;;;;;;10404530;28;20337;-74
2022/08/29 03:33:38;;;;;;;18.02;10.43;;;;;;;;;;10404831;28;20446;-74
2022/08/29 03:38:38;;;;;;;24.45;13.85;;;;;;;;;;10411555;28;20518;-73
2022/08/29 03:43:39;;;;;;;25.02;12.23;;;;;;;;;;10413234;28;20017;-75
2022/08/29 03:48:39;;;;;;;25.27;11.57;;;;;;;;;;10399007;28;20034;-74
2022/08/29 03:53:39;;;;;;;22.45;12.02;;;;;;;;;;10410805;28;20056;-75
2022/08/29 03:58:39;;;;;;;24.40;12.27;;;;;;;;;;10410758;28;20514;-80
2022/08/29 04:03:40;;;;;;;22.33;11.63;;;;;;;;;;10410694;28;20535;-77
2022/08/29 04:08:41;;;;;;;21.13;10.48;;;;;;;;;;10410586;28;20028;-74
2022/08/29 04:13:42;;;;;;;20.45;10.57;;;;;;;;;;10409537;28;20475;-73
2022/08/29 04:18:42;;;;;;;20.73;10.13;;;;;;;;;;10410087;28;20055;-76
2022/08/29 04:23:44;;;;;;;21.38;10.98;;;;;;;;;;10411011;28;20170;-77
2022/08/29 04:28:44;;;;;;;15.85;10.05;;;;;;;;;;10409530;28;20026;-78
2022/08/29 04:33:46;;;;;;;22.65;10.70;;;;;;;;;;10409493;28;20021;-74
2022/08/29 04:38:46;;;;;;;22.88;10.32;;;;;;;;;;10409370;28;20029;-74
2022/08/29 04:43:47;;;;;;;22.88;8.18;;;;;;;;;;10408713;28;20040;-76
2022/08/29 04:48:47;;;;;;;16.85;7.60;;;;;;;;;;10408129;28;20483;-77
2022/08/29 04:53:52;;;;;;;12.30;9.00;;;;;;;;;;10410863;28;20057;-71
2022/08/29 04:58:52;;;;;;;20.85;11.07;;;;;;;;;;10408737;28;20276;-78
2022/08/29 05:03:53;;;;;;;21.87;9.63;;;;;;;;;;10408212;28;20021;-73
2022/08/29 05:08:54;;;;;;;22.20;9.35;;;;;;;;;;10407960;28;20034;-79
2022/08/29 05:13:54;;;;;;;16.93;8.77;;;;;;;;;;10407542;28;20528;-74
2022/08/29 05:18:55;;;;;;;15.32;9.32;;;;;;;;;;10391274;28;20120;-78
2022/08/29 05:23:55;;;;;;;22.83;9.02;;;;;;;;;;10407107;28;20108;-74
2022/08/29 05:28:55;;;;;;;12.70;8.63;;;;;;;;;;10406690;28;20025;-77
2022/08/29 05:33:56;;;;;;;20.27;8.70;;;;;;;;;;10406368;28;20060;-75
2022/08/29 05:38:56;;;;;;;19.52;8.82;;;;;;;;;;10398156;28;20087;-74
2022/08/29 05:43:57;;;;;;;22.87;10.13;;;;;;;;;;10405106;28;20037;-73
2022/08/29 05:48:57;;;;;;;21.48;8.57;;;;;;;;;;10404801;28;20017;-73
2022/08/29 05:53:57;;;;;;;19.70;9.10;;;;;;;;;;10385329;28;20515;-75
2022/08/29 05:58:57;;;;;;;14.20;7.95;;;;;;;;;;10400742;28;20487;-76
2022/08/29 06:03:58;;;;;;;17.42;8.10;;;;;;;;;;10396754;28;20036;-77
2022/08/29 06:08:58;;;;;;;14.25;8.95;;;;;;;;;;10400705;28;20018;-73
2022/08/29 06:14:00;;;;;;;18.10;8.93;;;;;;;;;;10382197;28;20037;-77
2022/08/29 06:19:01;;;;;;;18.30;9.35;;;;;;;;;;10395203;28;20087;-73
2022/08/29 06:24:01;;;;;;;19.83;9.20;;;;;;;;;;10388566;28;20132;-77
2022/08/29 06:29:05;;;;;;;20.97;10.23;;;;;;;;;;10408883;28;20021;-74
2022/08/29 06:34:06;;;;;;;22.52;10.52;;;;;;;;;;10385113;28;20440;-78
2022/08/29 06:39:07;;;;;;;23.83;10.33;;;;;;;;;;10387617;28;20117;-76
2022/08/29 06:44:08;;;;;;;21.15;10.32;;;;;;;;;;10393282;28;20368;-78
2022/08/29 06:49:10;;;;;;;29.65;11.30;;;;;;;;;;10384977;28;20017;-77
2022/08/29 06:54:11;;;;;;;19.85;9.07;;;;;;;;;;10391046;28;20144;-77
2022/08/29 06:59:11;;;;;;;26.35;11.32;;;;;;;;;;10392497;28;20220;-74
2022/08/29 07:04:12;;;;;;;23.27;10.57;;;;;;;;;;10389939;28;20021;-76
2022/08/29 07:09:12;;;;;;;29.60;10.85;;;;;;;;;;10390788;28;20025;-76
2022/08/29 07:14:12;;;;;;;21.90;9.20;;;;;;;;;;10387382;28;20029;-76
2022/08/29 07:19:13;;;;;;;22.53;9.20;;;;;;;;;;10398730;28;20071;-75
2022/08/29 07:24:13;;;;;;;22.77;8.43;;;;;;;;;;10402548;28;20414;-74
2022/08/29 07:29:16;;;;;;;14.10;8.13;;;;;;;;;;10400083;28;20037;-80
2022/08/29 07:34:16;;;;;;;21.58;8.70;;;;;;;;;;10400258;28;20109;-76
2022/08/29 07:39:17;;;;;;;20.63;7.63;;;;;;;;;;10400181;28;20496;-77
2022/08/29 07:44:18;;;;;;;15.35;7.38;;;;;;;;;;10403511;28;20462;-73
2022/08/29 07:49:18;;;;;;;14.57;6.47;;;;;;;;;;10403032;28;20083;-76
2022/08/29 07:54:19;;;;;;;15.63;6.18;;;;;;;;;;10402971;28;20028;-79
2022/08/29 07:59:20;;;;;;;17.38;5.60;;;;;;;;;;10403134;28;20017;-72
2022/08/29 08:04:20;;;;;;;17.38;5.68;;;;;;;;;;10402791;28;20017;-75
2022/08/29 08:09:21;;;;;;;20.70;5.72;;;;;;;;;;10403247;28;20028;-76
2022/08/29 08:14:21;;;;;;;20.87;5.60;;;;;;;;;;10402695;28;20104;-75
2022/08/29 08:19:21;;;;;;;14.80;5.65;;;;;;;;;;10402711;28;20021;-73
2022/08/29 08:24:21;;;;;;;16.83;6.00;;;;;;;;;;10409225;28;20522;-76
2022/08/29 08:29:22;;;;;;;15.40;5.28;;;;;;;;;;10411102;28;20407;-77
2022/08/29 08:34:22;;;;;;;10.27;4.90;;;;;;;;;;10410000;28;20560;-73
2022/08/29 08:39:22;;;;;;;13.30;5.60;;;;;;;;;;10409426;28;20024;-75
2022/08/29 08:44:23;;;;;;;14.18;4.97;;;;;;;;;;10409508;28;20013;-80
2022/08/29 08:49:23;;;;;;;10.68;4.72;;;;;;;;;;10409009;28;20026;-74
2022/08/29 08:54:25;;;;;;;14.95;5.78;;;;;;;;;;10408654;28;20431;-81
2022/08/29 08:59:30;;;;;;;13.98;5.25;;;;;;;;;;10410064;28;20238;-75
2022/08/29 09:04:46;;;;;;;19.88;4.97;;;;;;;;;;10408068;28;20024;-76
2022/08/29 09:09:47;;;;;;;;;;;;;;;;;;10409847;28;20021;-76
2022/08/29 09:15:00;;;;;;;11.60;4.63;;;;;;;;;;10408069;28;19917;-80
2022/08/29 09:20:01;;;;;;;15.00;4.75;;;;;;;;;;10407372;28;20048;-78
2022/08/29 09:25:04;;;;;;;15.15;5.28;;;;;;;;;;10408654;28;20025;-78
2022/08/29 09:30:04;;;;;;;16.52;5.05;;;;;;;;;;10411468;28;20101;-77
2022/08/29 09:35:17;;;;;;;11.63;5.70;;;;;;;;;;10407832;28;20625;-76
2022/08/29 09:40:17;;;;;;;14.05;5.93;;;;;;;;;;10406761;28;20045;-78
2022/08/29 09:45:24;;;;;;;19.70;6.95;;;;;;;;;;10402374;28;20112;-77
2022/08/29 09:50:24;;;;;;;11.70;5.75;;;;;;;;;;10403109;28;20128;-79
2022/08/29 09:55:30;;;;;;;13.15;5.22;;;;;;;;;;10395709;28;20052;-78
2022/08/29 10:00:36;;;;;;;19.65;6.18;;;;;;;;;;10393135;28;20030;-77
2022/08/29 10:05:41;;;;;;;7.07;4.85;;;;;;;;;;10452574;22;20561;-78
2022/08/29 10:10:49;;;;;;;19.00;5.60;;;;;;;;;;10433887;28;20025;-77
2022/08/29 10:15:53;;;;;;;13.05;5.85;;;;;;;;;;10434843;28;20017;-77
2022/08/29 10:21:09;;;;;;;14.82;5.75;;;;;;;;;;10437077;28;20166;-77
2022/08/29 10:26:29;;;;;;;10.75;5.95;;;;;;;;;;10437454;28;20384;-76
2022/08/29 10:31:37;;;;;;;13.00;6.97;;;;;;;;;;10423705;28;20033;-78
2022/08/29 10:36:39;;;;;;;16.48;6.93;;;;;;;;;;10437902;28;20297;-77
2022/08/29 10:41:39;;;;;;;20.00;7.22;;;;;;;;;;10437895;28;20112;-77
2022/08/29 10:46:40;;;;;;;12.73;7.50;;;;;;;;;;10436534;28;20024;-78
2022/08/29 10:51:48;;;;;;;15.45;6.72;;;;;;;;;;10437976;28;20078;-77
2022/08/29 10:56:49;;;;;;;13.63;7.00;;;;;;;;;;10438041;28;20465;-78
2022/08/29 11:01:59;;;;;;;14.88;7.13;;;;;;;;;;10403791;28;20467;-79
2022/08/29 11:07:12;;;;;;;13.18;7.57;;;;;;;;;;10436680;28;20072;-77
2022/08/29 11:12:14;;;;;;;17.60;7.22;;;;;;;;;;10437376;28;20037;-77
2022/08/29 11:17:16;;;;;;;12.93;7.60;;;;;;;;;;10436117;28;20186;-79
2022/08/29 11:22:20;;;;;;;10.68;6.75;;;;;;;;;;10448068;28;20542;-78
2022/08/29 11:27:25;;;;;;;13.02;6.38;;;;;;;;;;10436726;28;20028;-78
2022/08/29 11:32:37;;;;;;;18.00;6.20;;;;;;;;;;10424294;28;20060;-78
2022/08/29 11:37:37;;;;;;;19.85;5.70;;;;;;;;;;10435287;23;20054;-79
2022/08/29 11:42:39;;;;;;;11.52;5.88;;;;;;;;;;10336808;28;20491;-77
2022/08/29 11:47:56;;;;;;;9.73;5.80;;;;;;;;;;10338875;28;20121;-78
2022/08/29 11:53:36;;;;;;;9.30;5.57;;;;;;;;;;10326975;28;20124;-78
2022/08/29 11:58:38;;;;;;;12.00;6.00;;;;;;;;;;10332625;28;20069;-82
2022/08/29 12:03:38;;;;;;;11.23;4.78;;;;;;;;;;10327005;28;20125;-78
2022/08/29 12:09:00;;;;;;;10.10;6.18;;;;;;;;;;10332322;28;20518;-78
2022/08/29 12:14:00;;;;;;;11.48;5.07;;;;;;;;;;10304988;28;20042;-78
2022/08/29 12:19:00;;;;;;;17.35;5.38;;;;;;;;;;10336138;28;20038;-77
2022/08/29 12:24:02;;;;;;;12.45;5.40;;;;;;;;;;10328488;28;20029;-77
2022/08/29 12:29:02;;;;;;;19.58;5.88;;;;;;;;;;10337367;28;20082;-79
2022/08/29 12:34:25;;;;;;;15.40;5.63;;;;;;;;;;10333370;28;20196;-79
2022/08/29 12:39:44;;;;;;;9.25;5.30;;;;;;;;;;10332563;28;20069;-77
2022/08/29 12:44:46;;;;;;;12.55;5.70;;;;;;;;;;10323933;28;20083;-79
2022/08/29 12:49:50;;;;;;;24.65;6.55;;;;;;;;;;10341280;28;20461;-78
2022/08/29 12:54:51;;;;;;;9.35;5.63;;;;;;;;;;10328820;28;20026;-78
2022/08/29 12:59:52;;;;;;;10.75;5.35;;;;;;;;;;10333603;28;20520;-78
2022/08/29 13:04:53;;;;;;;8.98;5.32;;;;;;;;;;10337909;28;20469;-78
2022/08/29 13:09:54;;;;;;;14.57;4.50;;;;;;;;;;10331950;28;20041;-75
2022/08/29 13:14:55;;;;;;;10.73;4.10;;;;;;;;;;10340591;28;20034;-78
2022/08/29 13:20:14;;;;;;;7.97;4.38;;;;;;;;;;10327362;28;20343;-77
2022/08/29 13:25:15;;;;;;;12.80;5.15;;;;;;;;;;10339377;28;20037;-77
2022/08/29 13:30:22;;;;;;;19.10;6.32;;;;;;;;;;10337556;28;20386;-77
2022/08/29 13:35:29;;;;;;;7.10;4.47;;;;;;;;;;10330899;28;20038;-76
2022/08/29 13:40:32;;;;;;;18.60;5.15;;;;;;;;;;10328931;28;20057;-78
2022/08/29 13:45:33;;;;;;;12.07;5.40;;;;;;;;;;10330236;28;20121;-72
2022/08/29 13:50:33;;;;;;;14.25;5.13;;;;;;;;;;10343812;28;20114;-78
2022/08/29 13:55:33;;;;;;;21.85;5.65;;;;;;;;;;10328221;28;20133;-76
2022/08/29 14:00:34;;;;;;;14.15;5.65;;;;;;;;;;10310251;28;20042;-78
2022/08/29 14:05:35;;;;;;;12.45;5.82;;;;;;;;;;10337366;28;20036;-72
2022/08/29 14:10:36;;;;;;;19.15;6.00;;;;;;;;;;10328607;28;20126;-78
2022/08/29 14:15:37;;;;;;;8.05;5.22;;;;;;;;;;10330460;28;20055;-73
2022/08/29 14:20:37;;;;;;;14.57;5.47;;;;;;;;;;10334761;28;20406;-76
2022/08/29 14:25:38;;;;;;;11.40;5.75;;;;;;;;;;10323222;28;20022;-77
2022/08/29 14:30:38;;;;;;;14.45;6.22;;;;;;;;;;10332677;28;20504;-77
2022/08/29 14:35:38;;;;;;;14.40;7.13;;;;;;;;;;10332252;28;20516;-76
2022/08/29 14:40:39;;;;;;;18.35;7.40;;;;;;;;;;10339279;28;20546;-76
2022/08/29 14:45:39;;;;;;;13.82;6.88;;;;;;;;;;10324139;28;20034;-76
2022/08/29 14:50:39;;;;;;;14.88;7.47;;;;;;;;;;10326337;28;20033;-73
2022/08/29 14:55:39;;;;;;;15.45;7.38;;;;;;;;;;10335784;28;20032;-76
2022/08/29 15:00:40;;;;;;;17.67;8.07;;;;;;;;;;10326706;28;20022;-78
2022/08/29 15:05:42;;;;;;;19.20;8.00;;;;;;;;;;10328704;28;20026;-76
2022/08/29 15:10:42;;;;;;;14.43;8.18;;;;;;;;;;10332201;28;20026;-76
2022/08/29 15:15:43;;;;;;;11.50;8.27;;;;;;;;;;10321117;28;20026;-76
2022/08/29 15:20:43;;;;;;;14.30;6.90;;;;;;;;;;10319578;28;20067;-76
2022/08/29 15:25:43;;;;;;;15.47;8.87;;;;;;;;;;10328523;28;20030;-76
2022/08/29 15:30:46;;;;;;;24.13;8.50;;;;;;;;;;10328038;28;20030;-77
2022/08/29 15:35:46;;;;;;;22.25;8.27;;;;;;;;;;10325979;28;20026;-78
2022/08/29 15:40:46;;;;;;;20.63;9.07;;;;;;;;;;10335545;28;20105;-78
2022/08/29 15:45:47;;;;;;;18.35;8.23;;;;;;;;;;10333881;28;20026;-77
2022/08/29 15:50:48;;;;;;;15.35;7.82;;;;;;;;;;10338974;28;20041;-76
2022/08/29 15:55:49;;;;;;;17.13;7.18;;;;;;;;;;10322469;28;20033;-77
2022/08/29 16:00:49;;;;;;;13.80;7.25;;;;;;;;;;10341381;28;20069;-80
2022/08/29 16:05:49;;;;;;;15.98;8.43;;;;;;;;;;10326161;28;20030;-79
2022/08/29 16:10:50;;;;;;;21.02;10.23;;;;;;;;;;10334591;28;20116;-78
2022/08/29 16:15:50;;;;;;;17.90;8.27;;;;;;;;;;10331901;28;20510;-77
2022/08/29 16:20:50;;;;;;;16.92;8.57;;;;;;;;;;10329046;28;20030;-77
2022/08/29 16:25:50;;;;;;;16.73;9.93;;;;;;;;;;10326007;28;20097;-80
2022/08/29 16:30:52;;;;;;;22.23;10.45;;;;;;;;;;10325588;28;20025;-76
2022/08/29 16:35:52;;;;;;;16.85;10.68;;;;;;;;;;10338584;28;20057;-76
2022/08/29 16:40:53;;;;;;;22.83;11.07;;;;;;;;;;10331165;28;20069;-74
2022/08/29 16:45:53;;;;;;;16.20;9.93;;;;;;;;;;10333971;28;20508;-78
2022/08/29 16:50:53;;;;;;;19.40;10.05;;;;;;;;;;10334880;28;20033;-77
2022/08/29 16:55:53;;;;;;;21.47;10.53;;;;;;;;;;10331912;28;20026;-77
2022/08/29 17:00:54;;;;;;;17.55;9.93;;;;;;;;;;10331755;28;20033;-77
2022/08/29 17:05:54;;;;;;;17.77;10.13;;;;;;;;;;10341048;28;20042;-78
2022/08/29 17:20:59;;;;;;;15.25;9.48;;;;;;;;;;10336622;28;20041;-75
2022/08/29 17:26:00;;;;;;;19.00;10.95;;;;;;;;;;10338147;28;20437;-77
2022/08/29 17:31:01;;;;;;;15.02;9.05;;;;;;;;;;10325858;28;20029;-72
2022/08/29 17:36:02;;;;;;;20.70;8.67;;;;;;;;;;10330964;28;20033;-78
2022/08/29 17:41:03;;;;;;;13.43;8.88;;;;;;;;;;10328560;28;20422;-77
2022/08/29 17:46:03;;;;;;;15.57;10.02;;;;;;;;;;10325520;28;20030;-75
2022/08/29 17:51:04;;;;;;;16.17;10.23;;;;;;;;;;10338274;28;20528;-78
2022/08/29 17:56:11;;;;;;;17.90;10.27;;;;;;;;;;10329963;28;20034;-79
2022/08/29 18:01:12;;;;;;;17.10;9.47;;;;;;;;;;10328295;28;20022;-71
2022/08/29 18:06:13;;;;;;;20.48;10.02;;;;;;;;;;10329969;28;20462;-78
2022/08/29 18:11:15;;;;;;;19.98;10.90;;;;;;;;;;10308141;28;20526;-78
2022/08/29 18:16:15;;;;;;;17.88;12.00;;;;;;;;;;10331907;28;20034;-78
2022/08/29 18:21:15;;;;;;;19.25;10.15;;;;;;;;;;10336782;28;20621;-80
2022/08/29 18:26:16;;;;;;;21.27;10.40;;;;;;;;;;10326202;28;20096;-77
2022/08/29 18:31:16;;;;;;;21.60;11.82;;;;;;;;;;10325686;28;20026;-78
2022/08/29 18:36:16;;;;;;;19.42;11.27;;;;;;;;;;10324185;28;20515;-78
2022/08/29 18:41:17;;;;;;;17.02;9.38;;;;;;;;;;10327967;28;20494;-76
2022/08/29 18:46:17;;;;;;;15.57;8.93;;;;;;;;;;10325379;28;20049;-77
2022/08/29 18:51:18;;;;;;;17.57;10.10;;;;;;;;;;10325728;28;20105;-76
2022/08/29 18:56:18;;;;;;;15.20;7.80;;;;;;;;;;10337019;28;20030;-72
2022/08/29 19:01:22;;;;;;;13.88;8.77;;;;;;;;;;10331943;28;20026;-74
2022/08/29 19:06:24;;;;;;;20.10;8.70;;;;;;;;;;10345733;28;20126;-78
2022/08/29 19:11:25;;;;;;;13.90;7.85;;;;;;;;;;10336295;28;20056;-78
2022/08/29 19:16:26;;;;;;;15.50;7.90;;;;;;;;;;10322350;28;20125;-76
2022/08/29 19:21:26;;;;;;;18.38;8.23;;;;;;;;;;10328733;28;20048;-78
2022/08/29 19:26:31;;;;;;;13.65;8.50;;;;;;;;;;10322678;28;20035;-76
2022/08/29 19:31:31;;;;;;;14.32;6.90;;;;;;;;;;10347301;28;20392;-76
2022/08/29 19:36:32;;;;;;;12.53;6.80;;;;;;;;;;10322432;28;20029;-77
2022/08/29 19:41:33;;;;;;;13.43;7.93;;;;;;;;;;10332451;28;20317;-76
2022/08/29 19:46:34;;;;;;;15.48;8.23;;;;;;;;;;10331921;28;20058;-77
2022/08/29 19:51:35;;;;;;;17.58;9.60;;;;;;;;;;10325591;28;20049;-76
2022/08/29 19:56:35;;;;;;;19.38;10.23;;;;;;;;;;10329001;28;20041;-76
2022/08/29 20:01:35;;;;;;;17.75;11.50;;;;;;;;;;10324938;28;20022;-76
2022/08/29 20:06:35;;;;;;;23.95;11.25;;;;;;;;;;10323533;28;20129;-77
2022/08/29 20:11:36;;;;;;;24.48;11.70;;;;;;;;;;10320365;28;20633;-72
2022/08/29 20:16:36;;;;;;;26.42;11.23;;;;;;;;;;10337781;28;20570;-78
2022/08/29 20:21:37;;;;;;;25.95;12.88;;;;;;;;;;10338739;28;20022;-79
2022/08/29 20:26:38;;;;;;;16.63;11.77;;;;;;;;;;10335260;28;20391;-76
2022/08/29 20:31:38;;;;;;;19.65;10.25;;;;;;;;;;10340766;28;20037;-77
2022/08/29 20:41:58;;;;;;;11.57;7.78;;;;;;;;;;10326483;28;20653;-78
2022/08/29 20:46:59;;;;;;;11.77;8.20;;;;;;;;;;10336296;28;20018;-77
2022/08/29 20:52:00;;;;;;;16.93;9.67;;;;;;;;;;10332982;28;20029;-76
2022/08/29 20:57:00;;;;;;;16.58;9.30;;;;;;;;;;10337925;28;20108;-80
2022/08/29 21:02:01;;;;;;;22.33;8.77;;;;;;;;;;10310887;28;20101;-75
2022/08/29 21:07:03;;;;;;;12.82;8.52;;;;;;;;;;10318903;28;20037;-78
2022/08/29 21:12:04;;;;;;;15.55;10.02;;;;;;;;;;10318615;28;20080;-75
2022/08/29 21:17:05;;;;;;;14.23;8.73;;;;;;;;;;10295982;28;20084;-79
2022/08/29 21:22:06;;;;;;;18.65;11.48;;;;;;;;;;10281574;28;20026;-78
2022/08/29 21:27:09;;;;;;;17.15;10.82;;;;;;;;;;10306208;28;20446;-71
2022/08/29 21:32:09;;;;;;;21.38;9.65;;;;;;;;;;10321286;28;20033;-77
2022/08/29 21:37:09;;;;;;;17.80;10.03;;;;;;;;;;10284756;28;20058;-76
2022/08/29 21:42:10;;;;;;;15.90;11.43;;;;;;;;;;10282521;28;20271;-79
2022/08/29 21:47:10;;;;;;;20.27;11.43;;;;;;;;;;10320849;28;20080;-76
2022/08/29 21:52:11;;;;;;;28.23;12.07;;;;;;;;;;10308329;28;20263;-76
2022/08/29 22:02:18;;;;;;;30.85;12.82;;;;;;;;;;10281680;28;20019;-77
2022/08/29 22:07:18;;;;;;;35.00;14.13;;;;;;;;;;10280361;28;20015;-74
2022/08/29 22:12:18;;;;;;;21.13;12.15;;;;;;;;;;10307611;28;20038;-72
2022/08/29 22:17:19;;;;;;;22.33;12.25;;;;;;;;;;10305950;28;20030;-72
2022/08/29 22:22:19;;;;;;;23.42;11.23;;;;;;;;;;10302116;28;20027;-72
2022/08/29 22:27:19;;;;;;;22.92;10.57;;;;;;;;;;10293071;28;20034;-81
2022/08/29 22:32:19;;;;;;;17.05;8.82;;;;;;;;;;10278269;28;20072;-73
2022/08/29 22:37:20;;;;;;;14.05;8.60;;;;;;;;;;10279108;28;20051;-77
2022/08/29 22:42:23;;;;;;;12.40;8.40;;;;;;;;;;10293354;28;20053;-80
2022/08/29 22:47:24;;;;;;;11.75;8.50;;;;;;;;;;10294378;28;20084;-76
2022/08/29 22:52:24;;;;;;;11.23;8.80;;;;;;;;;;10278406;28;20026;-76
2022/08/29 22:57:25;;;;;;;16.08;8.48;;;;;;;;;;10278281;28;20361;-76
2022/08/29 23:02:25;;;;;;;12.15;7.93;;;;;;;;;;10277393;28;20109;-73
2022/08/29 23:07:25;;;;;;;12.73;8.48;;;;;;;;;;10262130;28;20027;-80
2022/08/29 23:12:26;;;;;;;14.30;8.15;;;;;;;;;;10313914;28;20531;-73
2022/08/29 23:17:26;;;;;;;18.90;8.75;;;;;;;;;;10283877;28;20145;-77
2022/08/29 23:22:26;;;;;;;16.35;8.98;;;;;;;;;;10278074;28;20105;-72
2022/08/29 23:27:27;;;;;;;14.73;8.30;;;;;;;;;;10277964;28;20445;-72
2022/08/29 23:32:28;;;;;;;15.52;8.55;;;;;;;;;;10279236;28;20398;-76
2022/08/29 23:37:28;;;;;;;14.68;8.50;;;;;;;;;;10276532;28;20058;-77
2022/08/29 23:42:29;;;;;;;15.15;9.00;;;;;;;;;;10299546;28;20030;-77
2022/08/29 23:47:30;;;;;;;15.05;9.00;;;;;;;;;;10320464;28;20034;-76
2022/08/29 23:52:31;;;;;;;13.93;8.82;;;;;;;;;;10321271;28;20041;-77
2022/08/29 23:57:32;;;;;;;20.92;10.40;;;;;;;;;;10326422;28;20030;-77
